sensor_id;sensor_type;location;lat;lon;timestamp;pressure;altitude;pressure_sealevel;temperature;humidity
55217;BME280;41086;46.736;15.666;2023-01-05T00:01:04;98795.03;;;1.95;100.00
55217;BME280;41086;46.736;15.666;2023-01-05T00:03:32;98802.88;;;1.95;100.00
55217;BME280;41086;46.736;15.666;2023-01-05T00:06:19;98795.88;;;1.95;100.00
55217;BME280;41086;46.736;15.666;2023-01-05T00:08:46;98796.97;;;1.88;100.00
55217;BME280;41086;46.736;15.666;2023-01-05T00:11:15;98783.84;;;1.90;100.00
55217;BME280;41086;46.736;15.666;2023-01-05T00:14:02;98789.03;;;1.93;100.00
55217;BME280;41086;46.736;15.666;2023-01-05T00:16:47;98781.88;;;1.98;100.00
55217;BME280;41086;46.736;15.666;2023-01-05T00:19:33;98773.09;;;2.00;100.00
55217;BME280;41086;46.736;15.666;2023-01-05T00:22:23;98751.63;;;1.89;100.00
55217;BME280;41086;46.736;15.666;2023-01-05T00:25:06;98748.81;;;1.97;100.00
55217;BME280;41086;46.736;15.666;2023-01-05T00:27:39;98762.72;;;1.97;100.00
55217;BME280;41086;46.736;15.666;2023-01-05T00:30:08;98755.78;;;1.96;100.00
55217;BME280;41086;46.736;15.666;2023-01-05T00:32:35;98742.09;;;1.88;100.00
55217;BME280;41086;46.736;15.666;2023-01-05T00:35:03;98776.91;;;1.90;100.00
55217;BME280;41086;46.736;15.666;2023-01-05T00:37:32;98766.09;;;1.71;100.00
55217;BME280;41086;46.736;15.666;2023-01-05T00:39:59;98777.44;;;1.70;100.00
55217;BME280;41086;46.736;15.666;2023-01-05T00:42:26;98770.75;;;1.60;100.00
55217;BME280;41086;46.736;15.666;2023-01-05T00:44:53;98773.16;;;1.68;100.00
55217;BME280;41086;46.736;15.666;2023-01-05T00:47:20;98770.59;;;1.66;100.00
55217;BME280;41086;46.736;15.666;2023-01-05T00:49:47;98744.41;;;1.68;100.00
55217;BME280;41086;46.736;15.666;2023-01-05T00:52:14;98766.75;;;1.80;100.00
55217;BME280;41086;46.736;15.666;2023-01-05T00:54:41;98747.66;;;1.76;100.00
55217;BME280;41086;46.736;15.666;2023-01-05T00:57:12;98770.88;;;1.87;100.00
55217;BME280;41086;46.736;15.666;2023-01-05T00:59:39;98739.66;;;1.82;100.00
55217;BME280;41086;46.736;15.666;2023-01-05T01:02:06;98741.97;;;1.93;100.00
55217;BME280;41086;46.736;15.666;2023-01-05T01:04:34;98751.22;;;2.03;100.00
55217;BME280;41086;46.736;15.666;2023-01-05T01:07:03;98751.19;;;2.05;100.00
55217;BME280;41086;46.736;15.666;2023-01-05T01:09:30;98723.59;;;1.94;100.00
55217;BME280;41086;46.736;15.666;2023-01-05T01:11:57;98725.38;;;1.94;100.00
55217;BME280;41086;46.736;15.666;2023-01-05T01:14:25;98726.94;;;1.99;100.00
55217;BME280;41086;46.736;15.666;2023-01-05T01:16:51;98730.69;;;1.91;100.00
55217;BME280;41086;46.736;15.666;2023-01-05T01:19:21;98748.91;;;1.94;100.00
55217;BME280;41086;46.736;15.666;2023-01-05T01:21:48;98742.28;;;1.82;100.00
55217;BME280;41086;46.736;15.666;2023-01-05T01:24:18;98757.25;;;1.75;100.00
55217;BME280;41086;46.736;15.666;2023-01-05T01:26:46;98730.28;;;1.75;100.00
55217;BME280;41086;46.736;15.666;2023-01-05T01:29:13;98743.06;;;1.84;100.00
55217;BME280;41086;46.736;15.666;2023-01-05T01:31:44;98744.91;;;1.82;100.00
55217;BME280;41086;46.736;15.666;2023-01-05T01:34:12;98753.81;;;1.73;100.00
55217;BME280;41086;46.736;15.666;2023-01-05T01:36:40;98750.66;;;1.62;100.00
55217;BME280;41086;46.736;15.666;2023-01-05T01:39:07;98753.97;;;1.69;100.00
55217;BME280;41086;46.736;15.666;2023-01-05T01:41:37;98758.19;;;1.74;100.00
55217;BME280;41086;46.736;15.666;2023-01-05T01:49:56;98750.13;;;1.82;100.00
55217;BME280;41086;46.736;15.666;2023-01-05T01:52:26;98749.97;;;1.87;100.00
55217;BME280;41086;46.736;15.666;2023-01-05T01:54:53;98752.56;;;1.87;100.00
55217;BME280;41086;46.736;15.666;2023-01-05T01:57:21;98747.31;;;1.88;100.00
55217;BME280;41086;46.736;15.666;2023-01-05T01:59:50;98710.44;;;1.68;100.00
55217;BME280;41086;46.736;15.666;2023-01-05T02:02:17;98736.81;;;1.90;100.00
55217;BME280;41086;46.736;15.666;2023-01-05T02:04:47;98729.03;;;1.88;100.00
55217;BME280;41086;46.736;15.666;2023-01-05T02:07:15;98710.72;;;1.88;100.00
55217;BME280;41086;46.736;15.666;2023-01-05T02:09:42;98699.31;;;1.91;100.00
55217;BME280;41086;46.736;15.666;2023-01-05T02:12:23;98693.06;;;1.96;100.00
55217;BME280;41086;46.736;15.666;2023-01-05T02:15:07;98707.69;;;2.02;100.00
55217;BME280;41086;46.736;15.666;2023-01-05T02:20:32;98678.19;;;1.98;100.00
55217;BME280;41086;46.736;15.666;2023-01-05T02:29:09;98677.03;;;2.07;100.00
55217;BME280;41086;46.736;15.666;2023-01-05T02:31:54;98663.03;;;2.10;100.00
55217;BME280;41086;46.736;15.666;2023-01-05T02:34:42;98643.25;;;2.01;100.00
55217;BME280;41086;46.736;15.666;2023-01-05T02:37:19;98609.50;;;1.93;100.00
55217;BME280;41086;46.736;15.666;2023-01-05T02:39:56;98612.91;;;1.95;100.00
55217;BME280;41086;46.736;15.666;2023-01-05T02:42:28;98613.00;;;1.92;100.00
55217;BME280;41086;46.736;15.666;2023-01-05T02:45:03;98630.97;;;2.03;100.00
55217;BME280;41086;46.736;15.666;2023-01-05T02:50:25;98611.00;;;2.00;100.00
55217;BME280;41086;46.736;15.666;2023-01-05T02:53:02;98615.47;;;1.98;100.00
55217;BME280;41086;46.736;15.666;2023-01-05T02:55:45;98624.28;;;1.94;100.00
55217;BME280;41086;46.736;15.666;2023-01-05T02:58:27;98608.81;;;1.88;100.00
55217;BME280;41086;46.736;15.666;2023-01-05T03:01:38;98625.19;;;1.93;100.00
55217;BME280;41086;46.736;15.666;2023-01-05T03:04:17;98619.50;;;1.81;100.00
55217;BME280;41086;46.736;15.666;2023-01-05T03:06:58;98607.16;;;1.84;100.00
55217;BME280;41086;46.736;15.666;2023-01-05T03:09:31;98605.47;;;1.83;100.00
55217;BME280;41086;46.736;15.666;2023-01-05T03:12:22;98620.09;;;1.89;100.00
55217;BME280;41086;46.736;15.666;2023-01-05T03:15:24;98620.03;;;1.62;100.00
55217;BME280;41086;46.736;15.666;2023-01-05T03:17:57;98609.50;;;1.65;100.00
55217;BME280;41086;46.736;15.666;2023-01-05T03:20:30;98588.22;;;1.77;100.00
55217;BME280;41086;46.736;15.666;2023-01-05T03:22:59;98588.13;;;1.81;100.00
55217;BME280;41086;46.736;15.666;2023-01-05T03:25:46;98591.75;;;1.76;100.00
55217;BME280;41086;46.736;15.666;2023-01-05T03:28:52;98588.03;;;1.84;100.00
55217;BME280;41086;46.736;15.666;2023-01-05T03:31:50;98585.88;;;1.96;100.00
55217;BME280;41086;46.736;15.666;2023-01-05T03:34:50;98582.59;;;1.90;100.00
55217;BME280;41086;46.736;15.666;2023-01-05T03:37:51;98586.13;;;1.89;100.00
55217;BME280;41086;46.736;15.666;2023-01-05T03:40:31;98570.25;;;1.95;100.00
55217;BME280;41086;46.736;15.666;2023-01-05T03:42:59;98588.59;;;1.93;100.00
55217;BME280;41086;46.736;15.666;2023-01-05T03:45:42;98604.63;;;1.83;100.00
55217;BME280;41086;46.736;15.666;2023-01-05T03:48:16;98594.44;;;1.73;100.00
55217;BME280;41086;46.736;15.666;2023-01-05T03:50:43;98584.81;;;1.75;100.00
55217;BME280;41086;46.736;15.666;2023-01-05T03:53:13;98592.53;;;1.78;100.00
55217;BME280;41086;46.736;15.666;2023-01-05T03:55:42;98580.41;;;1.76;100.00
55217;BME280;41086;46.736;15.666;2023-01-05T03:58:09;98581.53;;;1.69;100.00
55217;BME280;41086;46.736;15.666;2023-01-05T04:00:41;98569.22;;;1.72;100.00
55217;BME280;41086;46.736;15.666;2023-01-05T04:03:10;98569.13;;;1.75;100.00
55217;BME280;41086;46.736;15.666;2023-01-05T04:05:38;98576.84;;;1.78;100.00
55217;BME280;41086;46.736;15.666;2023-01-05T04:08:05;98564.81;;;1.74;100.00
55217;BME280;41086;46.736;15.666;2023-01-05T04:10:34;98554.47;;;1.71;100.00
55217;BME280;41086;46.736;15.666;2023-01-05T04:13:01;98553.75;;;1.66;100.00
55217;BME280;41086;46.736;15.666;2023-01-05T04:15:28;98560.75;;;1.66;100.00
55217;BME280;41086;46.736;15.666;2023-01-05T04:17:55;98566.19;;;1.58;100.00
55217;BME280;41086;46.736;15.666;2023-01-05T04:20:22;98561.84;;;1.57;100.00
55217;BME280;41086;46.736;15.666;2023-01-05T04:22:49;98567.91;;;1.29;100.00
55217;BME280;41086;46.736;15.666;2023-01-05T04:25:19;98568.94;;;1.25;100.00
55217;BME280;41086;46.736;15.666;2023-01-05T04:27:46;98564.25;;;1.35;100.00
55217;BME280;41086;46.736;15.666;2023-01-05T04:30:14;98545.00;;;1.39;100.00
55217;BME280;41086;46.736;15.666;2023-01-05T04:32:41;98549.09;;;1.48;100.00
55217;BME280;41086;46.736;15.666;2023-01-05T04:35:12;98539.47;;;1.50;100.00
55217;BME280;41086;46.736;15.666;2023-01-05T04:37:40;98496.25;;;1.40;100.00
55217;BME280;41086;46.736;15.666;2023-01-05T04:40:08;98520.56;;;1.42;100.00
55217;BME280;41086;46.736;15.666;2023-01-05T04:42:45;98538.03;;;1.40;100.00
55217;BME280;41086;46.736;15.666;2023-01-05T04:45:13;98511.81;;;1.15;100.00
55217;BME280;41086;46.736;15.666;2023-01-05T04:47:39;98547.09;;;1.28;100.00
55217;BME280;41086;46.736;15.666;2023-01-05T04:50:08;98515.13;;;1.20;100.00
55217;BME280;41086;46.736;15.666;2023-01-05T04:52:36;98510.81;;;1.19;100.00
55217;BME280;41086;46.736;15.666;2023-01-05T04:55:03;98508.38;;;1.13;100.00
55217;BME280;41086;46.736;15.666;2023-01-05T04:57:31;98519.97;;;1.04;100.00
55217;BME280;41086;46.736;15.666;2023-01-05T04:59:58;98516.50;;;1.03;100.00
55217;BME280;41086;46.736;15.666;2023-01-05T05:02:25;98514.25;;;0.89;100.00
55217;BME280;41086;46.736;15.666;2023-01-05T05:04:52;98502.22;;;0.85;100.00
55217;BME280;41086;46.736;15.666;2023-01-05T05:07:20;98502.25;;;0.84;100.00
55217;BME280;41086;46.736;15.666;2023-01-05T05:09:47;98501.81;;;0.70;100.00
55217;BME280;41086;46.736;15.666;2023-01-05T05:12:14;98521.47;;;0.81;100.00
55217;BME280;41086;46.736;15.666;2023-01-05T05:14:41;98490.16;;;0.81;100.00
55217;BME280;41086;46.736;15.666;2023-01-05T05:17:08;98508.47;;;0.80;100.00
55217;BME280;41086;46.736;15.666;2023-01-05T05:19:37;98472.91;;;0.77;100.00
55217;BME280;41086;46.736;15.666;2023-01-05T05:22:04;98499.63;;;0.85;100.00
55217;BME280;41086;46.736;15.666;2023-01-05T05:24:31;98510.09;;;0.84;100.00
55217;BME280;41086;46.736;15.666;2023-01-05T05:26:58;98503.44;;;0.74;100.00
55217;BME280;41086;46.736;15.666;2023-01-05T05:29:25;98507.47;;;0.84;100.00
55217;BME280;41086;46.736;15.666;2023-01-05T05:31:52;98505.75;;;0.84;100.00
55217;BME280;41086;46.736;15.666;2023-01-05T05:34:19;98517.84;;;0.87;100.00
55217;BME280;41086;46.736;15.666;2023-01-05T05:36:46;98516.75;;;0.94;100.00
55217;BME280;41086;46.736;15.666;2023-01-05T05:39:14;98522.66;;;1.01;100.00
55217;BME280;41086;46.736;15.666;2023-01-05T05:41:41;98510.81;;;0.89;100.00
55217;BME280;41086;46.736;15.666;2023-01-05T05:44:08;98519.75;;;0.80;100.00
55217;BME280;41086;46.736;15.666;2023-01-05T05:46:35;98524.94;;;0.82;100.00
55217;BME280;41086;46.736;15.666;2023-01-05T05:49:02;98509.31;;;0.80;100.00
55217;BME280;41086;46.736;15.666;2023-01-05T05:51:30;98506.69;;;0.82;100.00
55217;BME280;41086;46.736;15.666;2023-01-05T05:53:58;98524.13;;;0.80;100.00
55217;BME280;41086;46.736;15.666;2023-01-05T05:56:25;98529.28;;;0.81;100.00
55217;BME280;41086;46.736;15.666;2023-01-05T05:58:52;98506.09;;;0.72;100.00
55217;BME280;41086;46.736;15.666;2023-01-05T06:01:26;98508.75;;;0.71;100.00
55217;BME280;41086;46.736;15.666;2023-01-05T06:03:53;98477.50;;;0.68;100.00
55217;BME280;41086;46.736;15.666;2023-01-05T06:06:20;98504.47;;;0.68;100.00
55217;BME280;41086;46.736;15.666;2023-01-05T06:08:47;98481.00;;;0.68;100.00
55217;BME280;41086;46.736;15.666;2023-01-05T06:11:14;98477.59;;;0.64;100.00
55217;BME280;41086;46.736;15.666;2023-01-05T06:13:41;98475.94;;;0.62;100.00
55217;BME280;41086;46.736;15.666;2023-01-05T06:16:08;98486.06;;;0.73;100.00
55217;BME280;41086;46.736;15.666;2023-01-05T06:18:35;98463.72;;;0.64;100.00
55217;BME280;41086;46.736;15.666;2023-01-05T06:21:02;98444.69;;;0.60;100.00
55217;BME280;41086;46.736;15.666;2023-01-05T06:23:29;98429.19;;;0.54;100.00
55217;BME280;41086;46.736;15.666;2023-01-05T06:25:56;98442.88;;;0.62;100.00
55217;BME280;41086;46.736;15.666;2023-01-05T06:28:23;98465.50;;;0.62;100.00
55217;BME280;41086;46.736;15.666;2023-01-05T06:30:49;98442.22;;;0.56;100.00
55217;BME280;41086;46.736;15.666;2023-01-05T06:33:16;98470.38;;;0.74;100.00
55217;BME280;41086;46.736;15.666;2023-01-05T06:35:43;98410.72;;;0.62;100.00
55217;BME280;41086;46.736;15.666;2023-01-05T06:38:10;98433.66;;;0.80;100.00
55217;BME280;41086;46.736;15.666;2023-01-05T06:40:40;98438.66;;;0.88;100.00
55217;BME280;41086;46.736;15.666;2023-01-05T06:43:10;98435.09;;;0.91;100.00
55217;BME280;41086;46.736;15.666;2023-01-05T06:45:37;98449.81;;;0.93;100.00
55217;BME280;41086;46.736;15.666;2023-01-05T06:48:04;98428.25;;;0.86;100.00
55217;BME280;41086;46.736;15.666;2023-01-05T06:50:31;98449.03;;;0.89;100.00
55217;BME280;41086;46.736;15.666;2023-01-05T06:52:58;98451.22;;;0.75;100.00
55217;BME280;41086;46.736;15.666;2023-01-05T06:55:25;98441.50;;;0.80;100.00
55217;BME280;41086;46.736;15.666;2023-01-05T06:57:51;98428.22;;;0.88;100.00
55217;BME280;41086;46.736;15.666;2023-01-05T07:00:26;98452.19;;;1.01;100.00
55217;BME280;41086;46.736;15.666;2023-01-05T07:02:53;98445.97;;;0.77;100.00
55217;BME280;41086;46.736;15.666;2023-01-05T07:05:20;98464.66;;;0.91;100.00
55217;BME280;41086;46.736;15.666;2023-01-05T07:07:49;98464.97;;;0.80;100.00
55217;BME280;41086;46.736;15.666;2023-01-05T07:10:16;98459.75;;;0.80;100.00
55217;BME280;41086;46.736;15.666;2023-01-05T07:12:42;98449.84;;;0.92;100.00
55217;BME280;41086;46.736;15.666;2023-01-05T07:15:09;98450.75;;;0.91;100.00
55217;BME280;41086;46.736;15.666;2023-01-05T07:17:36;98438.34;;;0.99;100.00
55217;BME280;41086;46.736;15.666;2023-01-05T07:20:04;98423.50;;;1.01;100.00
55217;BME280;41086;46.736;15.666;2023-01-05T07:22:31;98444.91;;;1.10;100.00
55217;BME280;41086;46.736;15.666;2023-01-05T07:24:58;98424.47;;;0.97;100.00
55217;BME280;41086;46.736;15.666;2023-01-05T07:27:25;98447.31;;;1.18;100.00
55217;BME280;41086;46.736;15.666;2023-01-05T07:29:52;98450.03;;;1.14;100.00
55217;BME280;41086;46.736;15.666;2023-01-05T07:32:19;98436.44;;;1.04;100.00
55217;BME280;41086;46.736;15.666;2023-01-05T07:34:45;98442.19;;;1.15;100.00
55217;BME280;41086;46.736;15.666;2023-01-05T07:37:21;98456.78;;;1.21;100.00
55217;BME280;41086;46.736;15.666;2023-01-05T07:39:50;98456.50;;;1.30;100.00
55217;BME280;41086;46.736;15.666;2023-01-05T07:42:17;98448.72;;;1.28;100.00
55217;BME280;41086;46.736;15.666;2023-01-05T07:44:46;98432.84;;;1.35;100.00
55217;BME280;41086;46.736;15.666;2023-01-05T07:47:13;98444.00;;;1.40;100.00
55217;BME280;41086;46.736;15.666;2023-01-05T07:49:42;98449.97;;;1.43;100.00
55217;BME280;41086;46.736;15.666;2023-01-05T07:52:09;98452.41;;;1.49;100.00
55217;BME280;41086;46.736;15.666;2023-01-05T07:54:35;98456.41;;;1.60;100.00
55217;BME280;41086;46.736;15.666;2023-01-05T07:57:02;98459.34;;;1.50;100.00
55217;BME280;41086;46.736;15.666;2023-01-05T07:59:29;98475.22;;;1.44;100.00
55217;BME280;41086;46.736;15.666;2023-01-05T08:01:56;98455.81;;;1.51;100.00
55217;BME280;41086;46.736;15.666;2023-01-05T08:04:26;98455.69;;;1.54;100.00
55217;BME280;41086;46.736;15.666;2023-01-05T08:06:53;98482.00;;;1.50;100.00
55217;BME280;41086;46.736;15.666;2023-01-05T08:09:20;98457.56;;;1.51;100.00
55217;BME280;41086;46.736;15.666;2023-01-05T08:12:05;98432.03;;;1.61;100.00
55217;BME280;41086;46.736;15.666;2023-01-05T08:14:32;98439.28;;;1.51;100.00
55217;BME280;41086;46.736;15.666;2023-01-05T08:16:59;98424.34;;;1.54;100.00
55217;BME280;41086;46.736;15.666;2023-01-05T08:19:26;98444.28;;;1.84;100.00
55217;BME280;41086;46.736;15.666;2023-01-05T08:21:53;98438.81;;;1.91;100.00
55217;BME280;41086;46.736;15.666;2023-01-05T08:24:20;98439.19;;;2.06;100.00
55217;BME280;41086;46.736;15.666;2023-01-05T08:26:49;98474.53;;;2.17;100.00
55217;BME280;41086;46.736;15.666;2023-01-05T08:29:16;98462.41;;;2.15;100.00
55217;BME280;41086;46.736;15.666;2023-01-05T08:31:43;98458.66;;;2.22;100.00
55217;BME280;41086;46.736;15.666;2023-01-05T08:34:10;98445.19;;;2.33;100.00
55217;BME280;41086;46.736;15.666;2023-01-05T08:36:37;98438.56;;;2.22;100.00
55217;BME280;41086;46.736;15.666;2023-01-05T08:39:05;98469.00;;;2.50;100.00
55217;BME280;41086;46.736;15.666;2023-01-05T08:41:34;98485.28;;;2.33;100.00
55217;BME280;41086;46.736;15.666;2023-01-05T08:44:08;98489.50;;;2.37;100.00
55217;BME280;41086;46.736;15.666;2023-01-05T08:46:36;98466.28;;;2.53;100.00
55217;BME280;41086;46.736;15.666;2023-01-05T08:49:05;98474.69;;;2.61;100.00
55217;BME280;41086;46.736;15.666;2023-01-05T08:51:32;98495.91;;;2.54;100.00
55217;BME280;41086;46.736;15.666;2023-01-05T08:53:59;98496.44;;;2.63;100.00
55217;BME280;41086;46.736;15.666;2023-01-05T08:56:26;98481.19;;;2.75;100.00
55217;BME280;41086;46.736;15.666;2023-01-05T08:59:02;98492.66;;;2.94;100.00
55217;BME280;41086;46.736;15.666;2023-01-05T09:01:28;98500.13;;;3.05;100.00
55217;BME280;41086;46.736;15.666;2023-01-05T09:03:56;98462.13;;;3.17;100.00
55217;BME280;41086;46.736;15.666;2023-01-05T09:06:23;98476.75;;;3.44;100.00
55217;BME280;41086;46.736;15.666;2023-01-05T09:08:50;98506.38;;;3.46;100.00
55217;BME280;41086;46.736;15.666;2023-01-05T09:11:22;98503.13;;;3.84;100.00
55217;BME280;41086;46.736;15.666;2023-01-05T09:13:53;98509.75;;;3.92;100.00
55217;BME280;41086;46.736;15.666;2023-01-05T09:16:22;98577.44;;;3.83;100.00
55217;BME280;41086;46.736;15.666;2023-01-05T09:19:10;98571.34;;;3.82;100.00
55217;BME280;41086;46.736;15.666;2023-01-05T09:21:36;98543.78;;;4.16;100.00
55217;BME280;41086;46.736;15.666;2023-01-05T09:24:06;98590.47;;;4.28;100.00
55217;BME280;41086;46.736;15.666;2023-01-05T09:26:33;98595.84;;;4.25;100.00
55217;BME280;41086;46.736;15.666;2023-01-05T09:29:01;98596.69;;;4.26;100.00
55217;BME280;41086;46.736;15.666;2023-01-05T09:31:27;98598.78;;;4.60;100.00
55217;BME280;41086;46.736;15.666;2023-01-05T09:33:57;98624.00;;;4.42;100.00
55217;BME280;41086;46.736;15.666;2023-01-05T09:36:25;98581.59;;;4.73;100.00
55217;BME280;41086;46.736;15.666;2023-01-05T09:38:52;98586.28;;;5.06;100.00
55217;BME280;41086;46.736;15.666;2023-01-05T09:43:52;98596.13;;;5.01;100.00
55217;BME280;41086;46.736;15.666;2023-01-05T09:46:42;98585.00;;;5.15;100.00
55217;BME280;41086;46.736;15.666;2023-01-05T09:49:15;98623.41;;;5.38;100.00
55217;BME280;41086;46.736;15.666;2023-01-05T09:51:42;98598.94;;;5.36;100.00
55217;BME280;41086;46.736;15.666;2023-01-05T09:54:12;98581.41;;;5.74;100.00
55217;BME280;41086;46.736;15.666;2023-01-05T09:56:43;98571.94;;;6.25;100.00
55217;BME280;41086;46.736;15.666;2023-01-05T09:59:36;98625.84;;;6.53;100.00
55217;BME280;41086;46.736;15.666;2023-01-05T10:04:40;98617.63;;;6.05;100.00
55217;BME280;41086;46.736;15.666;2023-01-05T10:07:22;98599.41;;;6.37;100.00
55217;BME280;41086;46.736;15.666;2023-01-05T10:09:53;98602.41;;;6.65;100.00
55217;BME280;41086;46.736;15.666;2023-01-05T10:13:00;98591.69;;;6.51;100.00
55217;BME280;41086;46.736;15.666;2023-01-05T10:15:41;98596.94;;;6.34;100.00
55217;BME280;41086;46.736;15.666;2023-01-05T10:18:14;98597.09;;;6.83;100.00
55217;BME280;41086;46.736;15.666;2023-01-05T10:21:09;98625.28;;;6.81;100.00
55217;BME280;41086;46.736;15.666;2023-01-05T10:34:46;98606.94;;;7.79;100.00
55217;BME280;41086;46.736;15.666;2023-01-05T10:37:30;98609.97;;;8.03;100.00
55217;BME280;41086;46.736;15.666;2023-01-05T10:45:34;98604.72;;;8.79;100.00
55217;BME280;41086;46.736;15.666;2023-01-05T10:48:33;98609.22;;;8.63;100.00
55217;BME280;41086;46.736;15.666;2023-01-05T10:51:02;98605.28;;;8.70;100.00
55217;BME280;41086;46.736;15.666;2023-01-05T10:53:34;98587.97;;;8.50;100.00
55217;BME280;41086;46.736;15.666;2023-01-05T10:56:09;98609.28;;;8.47;100.00
55217;BME280;41086;46.736;15.666;2023-01-05T10:58:40;98593.19;;;8.66;100.00
55217;BME280;41086;46.736;15.666;2023-01-05T11:01:34;98601.22;;;9.23;100.00
55217;BME280;41086;46.736;15.666;2023-01-05T11:04:08;98586.44;;;9.62;100.00
55217;BME280;41086;46.736;15.666;2023-01-05T11:07:05;98566.63;;;9.96;100.00
55217;BME280;41086;46.736;15.666;2023-01-05T11:09:38;98560.88;;;10.17;100.00
55217;BME280;41086;46.736;15.666;2023-01-05T11:12:19;98584.88;;;10.68;100.00
55217;BME280;41086;46.736;15.666;2023-01-05T11:14:57;98571.75;;;11.18;100.00
55217;BME280;41086;46.736;15.666;2023-01-05T11:17:26;98578.66;;;11.33;100.00
55217;BME280;41086;46.736;15.666;2023-01-05T11:19:59;98572.63;;;11.18;100.00
55217;BME280;41086;46.736;15.666;2023-01-05T11:22:34;98554.59;;;10.72;100.00
55217;BME280;41086;46.736;15.666;2023-01-05T11:30:32;98548.53;;;9.76;100.00
55217;BME280;41086;46.736;15.666;2023-01-05T11:33:00;98566.84;;;9.79;100.00
55217;BME280;41086;46.736;15.666;2023-01-05T11:35:31;98573.53;;;9.85;100.00
55217;BME280;41086;46.736;15.666;2023-01-05T11:37:59;98553.31;;;9.84;100.00
55217;BME280;41086;46.736;15.666;2023-01-05T11:40:33;98563.97;;;9.69;100.00
55217;BME280;41086;46.736;15.666;2023-01-05T11:43:09;98561.50;;;9.66;100.00
55217;BME280;41086;46.736;15.666;2023-01-05T11:45:43;98551.59;;;9.97;100.00
55217;BME280;41086;46.736;15.666;2023-01-05T11:48:18;98533.59;;;10.02;100.00
55217;BME280;41086;46.736;15.666;2023-01-05T11:50:52;98538.91;;;10.29;100.00
55217;BME280;41086;46.736;15.666;2023-01-05T12:09:36;98517.56;;;9.64;100.00
55217;BME280;41086;46.736;15.666;2023-01-05T12:20:46;98517.81;;;9.73;100.00
55217;BME280;41086;46.736;15.666;2023-01-05T12:23:38;98508.59;;;9.93;100.00
55217;BME280;41086;46.736;15.666;2023-01-05T12:35:10;98493.47;;;10.61;100.00
55217;BME280;41086;46.736;15.666;2023-01-05T12:40:48;98499.41;;;10.77;100.00
55217;BME280;41086;46.736;15.666;2023-01-05T12:46:28;98495.31;;;10.86;100.00
55217;BME280;41086;46.736;15.666;2023-01-05T12:48:59;98495.19;;;11.00;100.00
55217;BME280;41086;46.736;15.666;2023-01-05T12:51:36;98489.06;;;11.37;100.00
55217;BME280;41086;46.736;15.666;2023-01-05T12:56:51;98492.09;;;11.56;100.00
55217;BME280;41086;46.736;15.666;2023-01-05T12:59:38;98488.34;;;11.59;100.00
55217;BME280;41086;46.736;15.666;2023-01-05T13:02:29;98509.88;;;11.67;100.00
55217;BME280;41086;46.736;15.666;2023-01-05T13:07:38;98510.06;;;11.89;100.00
55217;BME280;41086;46.736;15.666;2023-01-05T13:10:44;98495.88;;;12.02;100.00
55217;BME280;41086;46.736;15.666;2023-01-05T13:13:17;98489.09;;;12.22;100.00
55217;BME280;41086;46.736;15.666;2023-01-05T13:18:34;98506.66;;;11.50;100.00
55217;BME280;41086;46.736;15.666;2023-01-05T13:21:03;98497.34;;;11.69;100.00
55217;BME280;41086;46.736;15.666;2023-01-05T13:23:41;98509.22;;;11.76;100.00
55217;BME280;41086;46.736;15.666;2023-01-05T13:26:15;98484.50;;;11.75;100.00
55217;BME280;41086;46.736;15.666;2023-01-05T13:28:52;98482.53;;;11.90;100.00
55217;BME280;41086;46.736;15.666;2023-01-05T13:31:47;98490.97;;;12.08;100.00
55217;BME280;41086;46.736;15.666;2023-01-05T13:37:38;98486.16;;;11.89;100.00
55217;BME280;41086;46.736;15.666;2023-01-05T13:41:02;98486.44;;;11.97;100.00
55217;BME280;41086;46.736;15.666;2023-01-05T13:53:45;98510.19;;;11.51;100.00
55217;BME280;41086;46.736;15.666;2023-01-05T13:56:20;98503.91;;;10.64;100.00
55217;BME280;41086;46.736;15.666;2023-01-05T13:59:23;98513.47;;;10.39;100.00
55217;BME280;41086;46.736;15.666;2023-01-05T14:02:02;98499.91;;;10.31;100.00
55217;BME280;41086;46.736;15.666;2023-01-05T14:04:32;98511.50;;;10.43;100.00
55217;BME280;41086;46.736;15.666;2023-01-05T14:07:03;98525.03;;;10.38;100.00
55217;BME280;41086;46.736;15.666;2023-01-05T14:09:36;98535.41;;;10.29;100.00
55217;BME280;41086;46.736;15.666;2023-01-05T14:20:40;98542.09;;;9.80;100.00
55217;BME280;41086;46.736;15.666;2023-01-05T14:26:04;98548.59;;;9.89;100.00
55217;BME280;41086;46.736;15.666;2023-01-05T14:33:52;98555.84;;;9.99;100.00
55217;BME280;41086;46.736;15.666;2023-01-05T14:36:28;98561.63;;;9.92;100.00
55217;BME280;41086;46.736;15.666;2023-01-05T14:41:43;98541.25;;;9.65;100.00
55217;BME280;41086;46.736;15.666;2023-01-05T14:44:21;98585.31;;;9.66;100.00
55217;BME280;41086;46.736;15.666;2023-01-05T14:46:54;98585.81;;;9.59;100.00
55217;BME280;41086;46.736;15.666;2023-01-05T14:49:53;98596.06;;;9.63;100.00
55217;BME280;41086;46.736;15.666;2023-01-05T14:55:33;98608.25;;;9.66;100.00
55217;BME280;41086;46.736;15.666;2023-01-05T15:03:48;98595.16;;;9.50;100.00
55217;BME280;41086;46.736;15.666;2023-01-05T15:21:13;98647.25;;;8.91;100.00
55217;BME280;41086;46.736;15.666;2023-01-05T15:24:15;98627.00;;;8.75;100.00
55217;BME280;41086;46.736;15.666;2023-01-05T15:27:13;98634.56;;;8.81;100.00
55217;BME280;41086;46.736;15.666;2023-01-05T15:32:31;98608.69;;;8.72;100.00
55217;BME280;41086;46.736;15.666;2023-01-05T15:37:35;98619.25;;;8.72;100.00
55217;BME280;41086;46.736;15.666;2023-01-05T15:40:26;98622.41;;;8.63;100.00
55217;BME280;41086;46.736;15.666;2023-01-05T15:43:02;98641.38;;;8.55;100.00
55217;BME280;41086;46.736;15.666;2023-01-05T15:45:35;98655.50;;;8.54;100.00
55217;BME280;41086;46.736;15.666;2023-01-05T15:48:12;98637.19;;;8.35;100.00
55217;BME280;41086;46.736;15.666;2023-01-05T15:50:48;98671.69;;;8.32;100.00